• Join FlightAware (Why Join?)
  • Login
  • US Flag GB Flag 
06:44 EDT


 

Airport Tracker/Info


-or-


 

Live Flight TrackerFlight Track Log ✈ AWE3397 ✈ 03-May-2013 ✈ KPHL - KMSY

Flight Track Log - Related Links

Times and Time Zones

All times are in EDT time to prevent confusion due to time zone crossing. See the AWE3397 flight status page for this flight to view local times or setup timezone preferences in your user account.

Time Position Orientation Groundspeed Altitude Reporting Facility
EDT Latitude Longitude Course Direction KTS MPH feet Rate Location/Type
08:44 39.8833 -75.2167 258° West 134 154 900  Level Philadelphia TRACON
08:46 39.8333 -75.6001 270° West  Level FlightAware Approximate
08:46 39.9353 -75.1214 55° Northeast 203 234 4,700  Level New York Center
08:47 39.8334 -75.7280 270° West  Level FlightAware Approximate
08:47 39.9592 -75.2069 290° West 170 196 7,700  Level New York Center
08:48 39.8215 -75.8543 258° West  Level FlightAware Approximate
08:48 39.9389 -75.3031 255° West 211 243 10,000  Level New York Center
08:49 39.8007 -75.9793 258° West  Level FlightAware Approximate
08:49 39.9156 -75.4233 256° West 281 323 10,100  Level New York Center
08:50 39.8850 -75.5619 254° West 350 403 11,000 1,020 Climbing New York Center
08:51 39.8614 -75.6767 255° West 372 428 12,200 1,620 Climbing New York Center
08:52 39.8344 -75.8181 256° West 372 428 14,300 2,040 Climbing New York Center
08:53 39.8189 -75.9414 261° West 372 428 16,400 1,800 Climbing New York Center
08:54 39.7528 -76.0689 236° Southwest 383 441 18,000 1,740 Climbing New York Center
08:55 39.6975 -76.1806 237° Southwest 403 464 20,000 1,860 Climbing New York Center
08:56 39.6353 -76.3081 238° Southwest 409 471 21,800 1,920 Climbing New York Center
08:56 39.5922 -76.3994 239° Southwest 416 479 23,100 1,740 Climbing Washington Center
08:57 39.5269 -76.5008 230° Southwest 398 458 24,600 1,440 Climbing Washington Center
08:59 39.4447 -76.6208 228° Southwest 420 483 26,100 1,260 Climbing Washington Center
09:00 39.3686 -76.7378 230° Southwest 432 497 27,200 1,080 Climbing Washington Center
09:00 39.2922 -76.8628 232° Southwest 437 503 28,300 1,200 Climbing Washington Center
09:02 39.2139 -76.9847 230° Southwest 442 509 29,600 1,440 Climbing Washington Center
09:03 39.1394 -77.1008 230° Southwest 442 509 31,300 1,320 Climbing Washington Center
09:03 39.0650 -77.2169 230° Southwest 442 509 32,300 1,020 Climbing Washington Center
09:05 38.9906 -77.3328 230° Southwest 437 503 33,400 840 Climbing Washington Center
09:06 38.9178 -77.4433 230° Southwest 431 496 34,000 300 Climbing Washington Center
09:07 38.8453 -77.5561 230° Southwest 424 488 34,000  Level Washington Center
09:08 38.7703 -77.6686 229° Southwest 424 488 34,000  Level Washington Center
09:08 38.6956 -77.7808 230° Southwest 424 488 34,000  Level Washington Center
09:09 38.6311 -77.8800 230° Southwest 418 481 34,000  Level Washington Center
09:11 38.5511 -78.0181 233° Southwest 412 474 34,000  Level Washington Center
09:12 38.4864 -78.1328 234° Southwest 406 467 34,000  Level Washington Center
09:13 38.4169 -78.2497 233° Southwest 406 467 34,000  Level Washington Center
09:14 38.3497 -78.3636 233° Southwest 406 467 34,000  Level Washington Center
09:15 38.2825 -78.4775 233° Southwest 406 467 34,000  Level Washington Center
09:15 38.2236 -78.5811 234° Southwest 406 467 34,000  Level Washington Center
09:16 38.1475 -78.7075 233° Southwest 406 467 34,000  Level Washington Center
09:18 38.0797 -78.8181 232° Southwest 406 467 34,000  Level Washington Center
09:19 38.0122 -78.9311 233° Southwest 406 467 34,000  Level Washington Center
09:19 37.9422 -79.0464 232° Southwest 406 467 34,000  Level Washington Center
09:21 37.8828 -79.1517 234° Southwest 406 467 34,000  Level Washington Center
09:22 37.8250 -79.2672 238° Southwest 406 467 34,000  Level Washington Center
09:22 37.7650 -79.3878 238° Southwest 401 461 34,000  Level Washington Center
09:23 37.6981 -79.5183 237° Southwest 406 467 34,000  Level Washington Center
09:25 37.6444 -79.6231 237° Southwest 406 467 34,000  Level Washington Center
09:26 37.5794 -79.7558 238° Southwest 406 467 34,000  Level Washington Center
09:27 37.5233 -79.8681 238° Southwest 406 467 34,000  Level Washington Center
09:28 37.4628 -79.9875 237° Southwest 406 467 34,000  Level Washington Center
09:28 37.4022 -80.1017 236° Southwest 406 467 34,000  Level Washington Center
09:29 37.3672 -80.1667 236° Southwest 412 474 34,000  Level Atlanta Center
09:30 37.3061 -80.2844 237° Southwest 412 474 34,000  Level Atlanta Center
09:31 37.2472 -80.4019 238° Southwest 412 474 34,000  Level Atlanta Center
09:32 37.1900 -80.5114 237° Southwest 412 474 34,000  Level Atlanta Center
09:33 37.1306 -80.6286 238° Southwest 412 474 34,000  Level Atlanta Center
09:34 37.0714 -80.7481 238° Southwest 406 467 34,000  Level Atlanta Center
09:35 37.0231 -80.8881 247° West 406 467 34,000  Level Atlanta Center
09:36 36.9781 -81.0144 246° West 401 461 34,000  Level Atlanta Center
09:37 36.9314 -81.1433 246° West 406 467 34,000  Level Atlanta Center
09:38 36.8861 -81.2697 246° West 406 467 34,000  Level Atlanta Center
09:39 36.8389 -81.3983 245° Southwest 406 467 34,000  Level Atlanta Center
09:40 36.7956 -81.5139 245° Southwest 406 467 34,000  Level Atlanta Center
09:41 36.7564 -81.6422 249° West 395 455 34,000  Level Atlanta Center
09:42 36.7108 -81.7653 245° Southwest 395 455 34,000  Level Atlanta Center
09:43 36.6669 -81.8831 245° Southwest 390 449 34,000  Level Atlanta Center
09:44 36.6192 -82.0058 244° Southwest 390 449 34,000  Level Atlanta Center
09:45 36.5753 -82.1283 246° West 385 443 34,000  Level Atlanta Center
09:46 36.5311 -82.2483 245° Southwest 385 443 34,000  Level Atlanta Center
09:47 36.4850 -82.3706 245° Southwest 385 443 34,000  Level Atlanta Center
09:48 36.4406 -82.4928 246° West 385 443 34,000  Level Atlanta Center
09:49 36.3942 -82.6150 245° Southwest 385 443 34,000  Level Atlanta Center
09:50 36.3414 -82.7475 244° Southwest 385 443 34,000  Level Atlanta Center
09:51 36.2947 -82.8717 245° Southwest 390 449 34,000  Level Atlanta Center
09:52 36.2500 -82.9933 246° West 390 449 34,000  Level Atlanta Center
09:53 36.2028 -83.1175 245° Southwest 390 449 34,000  Level Atlanta Center
09:54 36.1475 -83.2339 240° Southwest 396 456 34,000  Level Atlanta Center
09:55 36.0772 -83.3347 229° Southwest 396 456 34,000  Level Atlanta Center
09:56 36.0006 -83.4331 226° Southwest 396 456 34,000  Level Atlanta Center
09:57 35.9300 -83.5311 228° Southwest 390 449 34,000  Level Atlanta Center
09:58 35.8553 -83.6289 227° Southwest 390 449 34,000  Level Atlanta Center
09:59 35.7806 -83.7289 227° Southwest 396 456 34,000  Level Atlanta Center
10:00 35.7056 -83.8292 227° Southwest 396 456 34,000  Level Atlanta Center
10:01 35.6369 -83.9339 231° Southwest 396 456 34,000  Level Atlanta Center
10:02 35.5681 -84.0464 233° Southwest 402 463 34,000  Level Atlanta Center
10:03 35.4969 -84.1536 231° Southwest 407 468 34,000  Level Atlanta Center
10:04 35.4281 -84.2606 232° Southwest 407 468 34,000  Level Atlanta Center
10:05 35.3589 -84.3722 233° Southwest 413 475 34,000  Level Atlanta Center
10:06 35.2897 -84.4814 232° Southwest 413 475 34,000  Level Atlanta Center
10:07 35.2164 -84.5906 231° Southwest 413 475 34,000  Level Atlanta Center
10:08 35.1447 -84.6992 231° Southwest 413 475 34,000  Level Atlanta Center
10:09 35.0733 -84.8103 232° Southwest 419 482 34,000  Level Atlanta Center
10:11 34.9278 -85.0319 231° Southwest 419 482 34,000  Level Atlanta Center
10:12 34.8664 -85.1297 233° Southwest 414 476 34,000  Level Atlanta Center
10:13 34.7922 -85.2403 231° Southwest 414 476 34,000  Level Atlanta Center
10:14 34.7222 -85.3478 232° Southwest 414 476 34,000  Level Atlanta Center
10:15 34.6503 -85.4553 231° Southwest 414 476 34,000  Level Atlanta Center
10:16 34.5781 -85.5625 231° Southwest 414 476 34,000  Level Atlanta Center
10:17 34.5056 -85.6747 232° Southwest 419 482 34,000  Level Atlanta Center
10:18 34.4331 -85.7817 231° Southwest 419 482 34,000  Level Atlanta Center
10:19 34.3564 -85.8958 231° Southwest 414 476 34,000  Level Atlanta Center
10:20 34.2794 -86.0047 229° Southwest 414 476 34,000  Level Atlanta Center
10:21 34.2089 -86.1111 231° Southwest 414 476 34,000  Level Atlanta Center
10:22 34.1344 -86.1869 220° Southwest 414 476 34,000  Level Atlanta Center
10:23 34.0414 -86.2675 216° Southwest 408 470 34,000  Level Atlanta Center
10:24 33.9481 -86.3375 212° Southwest 413 475 34,000  Level Atlanta Center
10:25 33.8547 -86.4153 215° Southwest 408 470 34,000  Level Atlanta Center
10:26 33.7614 -86.4900 214° Southwest 408 470 34,000  Level Atlanta Center
10:27 33.6703 -86.5622 213° Southwest 408 470 34,000  Level Atlanta Center
10:28 33.5850 -86.6472 220° Southwest 408 470 34,000  Level Atlanta Center
10:29 33.5242 -86.7625 238° Southwest 399 459 34,000  Level Atlanta Center
10:30 33.4611 -86.8750 236° Southwest 411 473 34,000  Level Atlanta Center
10:31 33.3997 -86.9922 238° Southwest 416 479 34,000  Level Atlanta Center
10:32 33.3386 -87.1047 237° Southwest 416 479 34,000  Level Atlanta Center
10:33 33.2753 -87.2142 235° Southwest 411 473 34,000  Level Atlanta Center
10:34 33.1733 -87.4014 237° Southwest 414 476 34,000  Level Memphis Center
10:35 33.1111 -87.5125 236° Southwest 414 476 34,000  Level Memphis Center
10:36 33.0489 -87.6211 236° Southwest 408 470 34,000  Level Memphis Center
10:37 32.9886 -87.7319 237° Southwest 408 470 34,000  Level Memphis Center
10:38 32.9242 -87.8403 235° Southwest 408 470 34,000  Level Memphis Center
10:39 32.8678 -87.9556 240° Southwest 408 470 34,000  Level Memphis Center
10:40 32.8053 -88.0661 236° Southwest 403 464 34,000  Level Memphis Center
10:41 32.7425 -88.1714 235° Southwest 403 464 34,000  Level Memphis Center
10:42 32.6794 -88.2792 235° Southwest 403 464 34,000  Level Memphis Center
10:43 32.6186 -88.3892 237° Southwest 403 464 34,000  Level Memphis Center
10:44 32.5556 -88.4989 236° Southwest 403 464 34,000  Level Memphis Center
10:45 32.4947 -88.6086 237° Southwest 403 464 34,000  Level Memphis Center
10:46 32.4336 -88.7156 236° Southwest 403 464 34,000  Level Memphis Center
10:47 32.3681 -88.8150 232° Southwest 403 464 34,000  Level Memphis Center
10:48 32.2833 -88.9003 220° Southwest 398 458 34,000  Level Memphis Center
10:49 32.1986 -88.9800 219° Southwest 398 458 34,000  Level Memphis Center
10:50 32.1139 -89.0622 219° Southwest 398 458 34,000 -120 Level Memphis Center
10:51 32.0292 -89.1469 220° Southwest 398 458 33,800 -840 Descending Memphis Center
10:52 31.9403 -89.2289 218° Southwest 404 465 32,400 -1,440 Descending Memphis Center
10:54 31.7778 -89.3856 219° Southwest 413 475 29,600 -1,500 Descending Houston Center
10:55 31.6694 -89.4886 219° Southwest 420 483 28,000 -1,200 Descending Houston Center
10:56 31.5958 -89.5586 219° Southwest 411 473 27,200 -1,200 Descending Houston Center
10:58 31.4931 -89.6572 219° Southwest 401 461 25,600 -1,380 Descending Houston Center
10:59 31.4092 -89.7361 219° Southwest 392 451 24,400 -1,200 Descending Houston Center
11:00 31.3261 -89.8156 219° Southwest 387 445 23,200 -1,200 Descending Houston Center
11:01 31.2372 -89.8792 211° Southwest 379 436 22,000 -1,080 Descending Houston Center
11:02 31.1400 -89.9239 201° Southwest 377 434 21,000 -660 Descending Houston Center
11:03 31.0253 -89.9781 202° Southwest 373 429 20,700 -1,080 Descending Houston Center
11:04 30.9281 -90.0233 202° Southwest 376 433 18,800 -1,920 Descending Houston Center
11:05 30.8347 -90.0667 202° Southwest 368 423 16,800 -2,040 Descending Houston Center
11:05 30.7817 -90.0906 201° Southwest 361 415 15,800 -1,860 Descending Houston Center
11:06 30.7422 -90.1092 202° Southwest 361 415 14,900 -2,100 Descending Houston Center
11:07 30.6411 -90.1400 195° South 346 398 12,700 -2,100 Descending Houston Center
11:08 30.5617 -90.1386 179° South 333 383 11,100 -1,500 Descending Houston Center
11:09 30.4578 -90.1389 180° South 310 357 9,500 -1,500 Descending Houston Center
11:10 30.3925 -90.1383 180° South 272 313 8,100 -1,680 Descending Houston Center
11:10 30.3814 -90.1381 179° South 285 328 7,800 -1,800 Descending Houston Center
11:11 30.3153 -90.1392 181° South 272 313 6,300 -1,800 Descending Houston Center
11:11 30.3061 -90.1389 179° South 276 318 6,000 -1,680 Descending Houston Center
11:12 30.2400 -90.1397 181° South 271 312 4,600 -1,680 Descending Houston Center
11:12 30.2314 -90.1392 177° South 272 313 4,300 -600 Descending Houston Center
11:13 30.1647 -90.1381 179° South 267 307 4,000 -420 Descending Houston Center
11:13 30.1433 -90.1439 193° South 268 308 3,900  Descending Houston Center
11:14 30.1006 -90.1575 195° South 228 262 4,000  Climbing Houston Center
11:14 30.0828 -90.1633 196° South 242 278 3,900  Descending Houston Center
11:15 30.0375 -90.1481 164° South 223 257 4,000  Climbing Houston Center
11:15 30.0367 -90.1381 95° East 238 274 3,900 -600 Descending Houston Center
11:16 30.0250 -90.0767 102° East 226 260 3,400 -720 Descending Houston Center
11:16 30.0244 -90.0661 93° East 233 268 3,200 -420 Descending Houston Center
11:17 29.9903 -90.0372 144° Southeast 188 216 3,000 -300 Descending Houston Center
11:17 29.9853 -90.0361 169° South 209 241 2,900  Descending Houston Center
11:18 29.9514 -90.0628 214° Southwest 170 196 3,000 -360 Climbing Houston Center
11:19 29.9550 -90.1156 275° West 171 197 2,300 -720 Descending Houston Center
11:19 29.9594 -90.1297 290° West 172 198 2,100 -840 Descending Houston Center